La Grande, OR

1:59 PM PST on February 14, 2016 (GMT -0800)
La Grande-Union County | | Change Station
CLOSE
Current Station
Airport
Location: La Grande,
Elevation: 2717 ft
Nearby Weather Stations

Elev 2717 ft 45.29 °N, 118.01 °W | Updated 4 minutes ago

Overcast
Overcast
45 °F
Feels Like 42 °F
N
5
Wind Variable Wind from West

Today
High -- | Low -- °F
--% Chance of Precip.
Yesterday
High -- | Low -- °F
Precip. -- in
Pressure 30.18 in
Visibility 10.0 miles
Clouds Few 2500 ft
Mostly Cloudy 3300 ft
Overcast 4000 ft
Windchill 42 °F
Dew Point 45 °F
Humidity 100%
Rainfall 0.62 in
Snow Depth Not available.
6:55 AM 5:17 PM
Waxing Crescent, 45% visible
METAR KLGD 142155Z AUTO 27004KT 10SM FEW025 BKN033 OVC040 07/07 A3018 RMK AO1 P0002
Pressure 30.18 in
Visibility 10.0 miles
Clouds Few 2500 ft
Mostly Cloudy 3300 ft
Overcast 4000 ft
Windchill 42 °F
Dew Point 45 °F
Humidity 100%
Rainfall 0.62 in
Snow Depth Not available.
6:55 AM 5:17 PM
Waxing Crescent, 45% visible
METAR KLGD 142155Z AUTO 27004KT 10SM FEW025 BKN033 OVC040 07/07 A3018 RMK AO1 P0002

10-Day Weather Forecast

Almanac

Astronomy

Feb. 14, 2016 Rise Set
Actual Time
Civil Twilight
Nautical Twilight
Astronomical Twilight
Moon
Length of Visible Light
Length of Day
Tomorrow will be .
, % of the Moon is Illuminated

Today's Extremes

State Highs State Lows

Community

WunderPhotos

Upload Photos

1,892,890 photos uploaded!

WunderBlog® & News

Nearby

Air Quality

  Air Quality AQ Index Pollutant
Not available.

Snow Depth

Station Depth Elevation

Earthquake Activity

City Distance Mag. Time & Date
Minimum magnitude displayed is 2.5.

Coastal Water Temperatures

Place Temperature

Stations

Nearby Weather Stations

Station Location Temp. Windchill Dew Point Humidity Wind Precip. Elev Updated Type
                   

Watches & Warnings

There are currently no watches in effect.